Time;durP1;ratioP1;P1;durP2;ratioP2;P2;SDS_P1;SDS_P2;PMS_P1;PMS_P2;Temp;Humidity;BMP_temperature;BMP_pressure;BME280_temperature;BME280_humidity;BME280_pressure;Samples;Min_cycle;Max_cycle;Signal;HPM_P1;HPM_P2
2022/05/25 00:01:52;;;;;;;9.10;6.67;;;;;;;;;;5036016;28;20916;-73
2022/05/25 00:04:17;;;;;;;6.47;5.80;;;;;;;;;;5041223;28;20588;-73
2022/05/25 00:06:43;;;;;;;8.77;5.57;;;;;;;;;;5047222;28;20174;-74
2022/05/25 00:09:08;;;;;;;8.40;6.00;;;;;;;;;;5045195;28;20193;-72
2022/05/25 00:11:34;;;;;;;14.93;8.00;;;;;;;;;;5048015;28;20893;-72
2022/05/25 00:14:00;;;;;;;10.07;5.63;;;;;;;;;;5047492;28;20232;-74
2022/05/25 00:16:25;;;;;;;6.00;5.47;;;;;;;;;;5047767;28;20208;-72
2022/05/25 00:21:34;;;;;;;6.77;5.20;;;;;;;;;;5039567;28;20188;-74
2022/05/25 00:23:59;;;;;;;6.30;5.70;;;;;;;;;;5045724;28;20193;-72
2022/05/25 00:26:24;;;;;;;7.47;6.03;;;;;;;;;;5044049;28;20184;-73
2022/05/25 00:28:49;;;;;;;8.47;6.50;;;;;;;;;;5040940;28;20185;-73
2022/05/25 00:31:15;;;;;;;7.63;6.70;;;;;;;;;;5046575;28;20644;-73
2022/05/25 00:33:40;;;;;;;7.93;6.23;;;;;;;;;;5049986;28;20197;-73
2022/05/25 00:36:05;;;;;;;9.27;6.60;;;;;;;;;;5050703;28;20781;-73
2022/05/25 00:38:30;;;;;;;9.87;6.57;;;;;;;;;;5041919;28;20209;-73
2022/05/25 00:40:56;;;;;;;10.13;7.17;;;;;;;;;;5044819;28;20644;-72
2022/05/25 00:43:21;;;;;;;7.30;6.60;;;;;;;;;;5047693;28;20209;-73
2022/05/25 00:45:49;;;;;;;9.23;7.13;;;;;;;;;;5045943;28;20327;-73
2022/05/25 00:48:21;;;;;;;9.83;7.43;;;;;;;;;;5041700;28;20178;-74
2022/05/25 00:53:48;;;;;;;9.93;8.63;;;;;;;;;;5010992;28;20244;-72
2022/05/25 00:56:15;;;;;;;14.77;8.33;;;;;;;;;;5047112;28;20561;-74
2022/05/25 00:58:43;;;;;;;10.00;7.60;;;;;;;;;;5047010;28;20209;-73
2022/05/25 01:01:08;;;;;;;9.93;7.13;;;;;;;;;;5047585;28;20260;-74
2022/05/25 01:03:33;;;;;;;9.07;7.00;;;;;;;;;;5046932;28;20235;-72
2022/05/25 01:06:04;;;;;;;10.53;8.33;;;;;;;;;;5045055;28;20551;-74
2022/05/25 01:08:39;;;;;;;10.90;6.83;;;;;;;;;;5029448;28;20182;-73
2022/05/25 01:11:04;;;;;;;8.93;7.07;;;;;;;;;;5047798;28;20176;-74
2022/05/25 01:13:40;;;;;;;8.47;7.00;;;;;;;;;;5028505;28;20205;-73
2022/05/25 01:16:07;;;;;;;11.10;7.13;;;;;;;;;;5047186;28;21145;-74
2022/05/25 01:18:39;;;;;;;7.70;6.70;;;;;;;;;;5029687;28;20216;-73
2022/05/25 01:21:23;;;;;;;9.77;7.43;;;;;;;;;;5030032;28;20201;-73
2022/05/25 01:23:51;;;;;;;11.93;7.70;;;;;;;;;;5047730;28;20201;-74
2022/05/25 01:26:32;;;;;;;8.73;6.80;;;;;;;;;;5047798;28;20661;-74
2022/05/25 01:29:15;;;;;;;8.80;6.97;;;;;;;;;;5038723;28;20186;-74
2022/05/25 01:31:59;;;;;;;9.40;6.63;;;;;;;;;;5038545;28;20272;-74
2022/05/25 01:34:33;;;;;;;8.13;7.03;;;;;;;;;;5043850;28;20321;-73
2022/05/25 01:36:58;;;;;;;9.33;5.57;;;;;;;;;;5041099;28;20273;-73
2022/05/25 01:39:27;;;;;;;8.93;7.05;;;;;;;;;;5043007;28;20265;-74
2022/05/25 01:41:56;;;;;;;12.30;7.03;;;;;;;;;;5032212;28;20273;-73
2022/05/25 01:44:23;;;;;;;10.10;7.67;;;;;;;;;;5044924;28;20318;-73
2022/05/25 01:46:51;;;;;;;9.27;7.73;;;;;;;;;;5044092;28;20181;-73
2022/05/25 01:49:19;;;;;;;8.50;7.00;;;;;;;;;;5041879;28;20260;-72
2022/05/25 01:51:49;;;;;;;9.03;7.70;;;;;;;;;;5031324;28;20178;-73
2022/05/25 01:54:17;;;;;;;12.27;8.53;;;;;;;;;;5033245;28;20252;-73
2022/05/25 01:56:44;;;;;;;14.37;9.40;;;;;;;;;;5047047;28;20231;-74
2022/05/25 01:59:12;;;;;;;11.47;8.30;;;;;;;;;;5047044;28;20261;-74
2022/05/25 02:01:46;;;;;;;12.07;9.50;;;;;;;;;;5034488;28;20185;-74
2022/05/25 02:04:21;;;;;;;12.83;9.37;;;;;;;;;;5036176;28;20220;-73
2022/05/25 02:06:46;;;;;;;15.30;9.53;;;;;;;;;;5052946;28;20269;-74
2022/05/25 02:09:37;;;;;;;12.70;10.33;;;;;;;;;;5051142;28;20641;-73
2022/05/25 02:12:07;;;;;;;13.40;10.23;;;;;;;;;;5052687;28;20269;-74
2022/05/25 02:14:40;;;;;;;11.80;8.93;;;;;;;;;;5044317;28;20210;-72
2022/05/25 02:17:23;;;;;;;17.30;10.37;;;;;;;;;;5052545;28;20617;-73
2022/05/25 02:20:07;;;;;;;13.03;9.57;;;;;;;;;;5049489;28;20177;-75
2022/05/25 02:22:32;;;;;;;11.03;9.13;;;;;;;;;;5026571;28;20197;-74
2022/05/25 02:25:02;;;;;;;10.93;9.30;;;;;;;;;;5044155;28;20171;-73
2022/05/25 02:27:27;;;;;;;13.73;10.13;;;;;;;;;;5046621;28;20826;-73
2022/05/25 02:30:01;;;;;;;15.70;10.70;;;;;;;;;;5033432;28;20182;-74
2022/05/25 02:32:29;;;;;;;15.30;10.60;;;;;;;;;;5051319;28;20217;-73
2022/05/25 02:34:56;;;;;;;14.13;10.30;;;;;;;;;;5032920;28;20191;-73
2022/05/25 02:37:23;;;;;;;15.60;10.07;;;;;;;;;;5027393;28;20194;-74
2022/05/25 02:39:53;;;;;;;11.07;9.37;;;;;;;;;;5048682;28;20186;-74
2022/05/25 02:42:18;;;;;;;14.63;10.10;;;;;;;;;;5053101;28;20257;-73
2022/05/25 02:44:44;;;;;;;13.10;10.07;;;;;;;;;;5047057;28;20266;-73
2022/05/25 02:47:09;;;;;;;13.20;10.10;;;;;;;;;;5030724;28;20563;-73
2022/05/25 02:49:35;;;;;;;14.93;11.27;;;;;;;;;;5049186;28;20173;-73
2022/05/25 02:52:00;;;;;;;15.57;10.37;;;;;;;;;;5053389;28;20190;-72
2022/05/25 02:54:25;;;;;;;12.93;9.80;;;;;;;;;;5051924;28;20247;-72
2022/05/25 02:56:50;;;;;;;12.93;10.30;;;;;;;;;;5052014;28;20656;-74
2022/05/25 02:59:16;;;;;;;18.20;11.33;;;;;;;;;;5045086;28;20273;-73
2022/05/25 03:01:41;;;;;;;14.67;12.40;;;;;;;;;;5051377;28;20173;-73
2022/05/25 03:04:06;;;;;;;18.70;12.07;;;;;;;;;;5033542;28;20738;-74
2022/05/25 03:06:31;;;;;;;18.80;11.63;;;;;;;;;;5049423;28;20228;-73
2022/05/25 03:08:57;;;;;;;17.07;11.73;;;;;;;;;;5049301;28;20519;-73
2022/05/25 03:11:22;;;;;;;16.03;12.17;;;;;;;;;;5052778;28;20188;-74
2022/05/25 03:13:48;;;;;;;19.13;12.60;;;;;;;;;;5044017;28;20198;-74
2022/05/25 03:16:15;;;;;;;21.07;12.33;;;;;;;;;;5050082;28;20661;-74
2022/05/25 03:18:40;;;;;;;17.23;11.33;;;;;;;;;;5050430;28;20240;-74
2022/05/25 03:21:07;;;;;;;16.50;11.77;;;;;;;;;;5051944;28;20207;-73
2022/05/25 03:23:32;;;;;;;14.57;11.83;;;;;;;;;;5045384;28;20198;-75
2022/05/25 03:25:57;;;;;;;19.83;12.57;;;;;;;;;;5033779;28;20180;-73
2022/05/25 03:28:23;;;;;;;16.80;11.97;;;;;;;;;;5031864;28;20691;-73
2022/05/25 03:30:48;;;;;;;22.27;13.60;;;;;;;;;;5052535;28;20182;-72
2022/05/25 03:33:14;;;;;;;19.23;13.00;;;;;;;;;;5052033;28;20605;-73
2022/05/25 03:35:39;;;;;;;19.43;13.03;;;;;;;;;;5033607;28;20193;-74
2022/05/25 03:38:04;;;;;;;22.07;14.67;;;;;;;;;;5050412;28;20197;-74
2022/05/25 03:40:30;;;;;;;26.37;14.03;;;;;;;;;;5045076;28;20242;-74
2022/05/25 03:42:55;;;;;;;23.60;14.00;;;;;;;;;;5049107;28;20200;-73
2022/05/25 03:45:20;;;;;;;20.47;13.07;;;;;;;;;;5050593;28;20193;-74
2022/05/25 03:47:46;;;;;;;21.90;12.80;;;;;;;;;;5051383;28;20181;-72
2022/05/25 03:50:11;;;;;;;20.07;13.00;;;;;;;;;;5049429;28;20622;-72
2022/05/25 03:52:36;;;;;;;21.77;14.10;;;;;;;;;;5051942;28;20210;-73
2022/05/25 03:55:02;;;;;;;19.03;12.63;;;;;;;;;;5049523;28;20236;-73
2022/05/25 03:57:27;;;;;;;22.33;13.17;;;;;;;;;;5049073;28;20221;-73
2022/05/25 03:59:53;;;;;;;16.93;12.60;;;;;;;;;;5049443;28;20182;-72
2022/05/25 04:02:18;;;;;;;22.07;13.63;;;;;;;;;;5050087;28;20209;-74
2022/05/25 04:04:43;;;;;;;20.90;13.97;;;;;;;;;;5050265;28;20200;-73
2022/05/25 04:07:09;;;;;;;22.00;13.13;;;;;;;;;;5032554;28;20592;-73
2022/05/25 04:09:34;;;;;;;23.67;14.77;;;;;;;;;;5046261;28;20177;-73
2022/05/25 04:11:59;;;;;;;20.17;13.70;;;;;;;;;;5049524;28;20537;-73
2022/05/25 04:14:24;;;;;;;20.63;11.83;;;;;;;;;;5048561;28;20201;-74
2022/05/25 04:16:49;;;;;;;22.47;13.63;;;;;;;;;;5049852;28;20181;-74
2022/05/25 04:19:15;;;;;;;21.27;13.00;;;;;;;;;;5050492;28;20426;-73
2022/05/25 04:21:40;;;;;;;20.50;12.37;;;;;;;;;;5043339;28;20434;-72
2022/05/25 04:24:06;;;;;;;18.87;12.27;;;;;;;;;;5023762;28;20229;-72
2022/05/25 04:26:31;;;;;;;20.57;13.03;;;;;;;;;;5048638;28;20224;-74
2022/05/25 04:28:57;;;;;;;19.03;12.43;;;;;;;;;;5048781;28;20185;-76
2022/05/25 04:31:22;;;;;;;23.33;13.57;;;;;;;;;;5050256;28;20625;-74
2022/05/25 04:33:48;;;;;;;18.40;13.23;;;;;;;;;;5044699;28;20197;-73
2022/05/25 04:36:13;;;;;;;17.00;12.80;;;;;;;;;;5048331;28;20565;-74
2022/05/25 04:38:38;;;;;;;20.17;12.93;;;;;;;;;;5046236;28;20304;-72
2022/05/25 04:41:04;;;;;;;22.50;13.20;;;;;;;;;;5050132;28;20253;-72
2022/05/25 04:43:29;;;;;;;21.63;13.40;;;;;;;;;;5043963;28;20194;-72
2022/05/25 04:45:54;;;;;;;16.60;12.53;;;;;;;;;;5050886;28;20594;-72
2022/05/25 04:48:21;;;;;;;17.07;11.83;;;;;;;;;;5039094;28;20174;-72
2022/05/25 04:50:46;;;;;;;14.50;12.50;;;;;;;;;;5048808;28;20173;-73
2022/05/25 04:53:13;;;;;;;16.57;12.40;;;;;;;;;;5046169;28;20212;-73
2022/05/25 04:58:38;;;;;;;16.93;11.70;;;;;;;;;;5044009;28;20219;-73
2022/05/25 05:01:05;;;;;;;15.00;11.37;;;;;;;;;;5039169;28;20202;-72
2022/05/25 05:03:30;;;;;;;13.37;10.80;;;;;;;;;;5045937;28;20202;-73
2022/05/25 05:05:57;;;;;;;14.30;11.10;;;;;;;;;;5044126;28;20202;-73
2022/05/25 05:08:23;;;;;;;17.33;10.80;;;;;;;;;;5047416;28;20268;-72
2022/05/25 05:10:48;;;;;;;15.02;11.18;;;;;;;;;;5051422;28;20256;-72
2022/05/25 05:13:14;;;;;;;14.10;10.80;;;;;;;;;;5044959;28;20201;-73
2022/05/25 05:15:41;;;;;;;13.18;10.20;;;;;;;;;;5044794;28;20194;-73
2022/05/25 05:18:07;;;;;;;12.25;10.57;;;;;;;;;;5048592;28;20204;-72
2022/05/25 05:20:32;;;;;;;13.40;10.73;;;;;;;;;;5025235;28;20170;-73
2022/05/25 05:22:57;;;;;;;11.80;10.00;;;;;;;;;;5043172;28;20202;-73
2022/05/25 05:25:22;;;;;;;14.73;11.10;;;;;;;;;;5046665;28;20182;-72
2022/05/25 05:27:48;;;;;;;14.47;10.07;;;;;;;;;;5049192;28;20219;-73
2022/05/25 05:30:15;;;;;;;13.47;10.57;;;;;;;;;;5029328;28;20185;-72
2022/05/25 05:32:40;;;;;;;14.48;10.05;;;;;;;;;;5048826;28;20212;-73
2022/05/25 05:35:05;;;;;;;12.03;10.57;;;;;;;;;;5053264;28;20181;-73
2022/05/25 05:37:35;;;;;;;14.20;9.50;;;;;;;;;;5052601;28;20244;-73
2022/05/25 05:40:01;;;;;;;14.50;10.52;;;;;;;;;;5053022;28;20324;-72
2022/05/25 05:42:26;;;;;;;15.60;10.63;;;;;;;;;;5046292;28;20202;-73
2022/05/25 05:45:00;;;;;;;17.27;10.48;;;;;;;;;;5050795;28;20177;-73
2022/05/25 05:47:30;;;;;;;12.68;10.13;;;;;;;;;;5052303;28;20181;-73
2022/05/25 05:49:56;;;;;;;11.95;9.40;;;;;;;;;;5053788;28;20230;-73
2022/05/25 05:52:21;;;;;;;11.52;9.50;;;;;;;;;;5055269;28;20276;-73
2022/05/25 05:54:46;;;;;;;11.40;9.80;;;;;;;;;;5051494;28;20576;-71
2022/05/25 05:57:12;;;;;;;16.35;10.43;;;;;;;;;;5031517;28;20212;-73
2022/05/25 05:59:38;;;;;;;15.90;10.80;;;;;;;;;;5049011;28;20725;-73
2022/05/25 06:02:03;;;;;;;13.48;9.90;;;;;;;;;;5047339;28;20178;-72
2022/05/25 06:04:28;;;;;;;13.98;9.88;;;;;;;;;;5051312;28;20173;-72
2022/05/25 06:06:54;;;;;;;16.88;9.70;;;;;;;;;;5055823;28;20189;-72
2022/05/25 06:09:19;;;;;;;14.98;9.85;;;;;;;;;;5053454;28;20183;-72
2022/05/25 06:11:44;;;;;;;14.17;9.60;;;;;;;;;;5055615;28;20522;-73
2022/05/25 06:14:10;;;;;;;12.80;11.32;;;;;;;;;;5040070;28;20473;-73
2022/05/25 06:19:33;;;;;;;13.68;9.20;;;;;;;;;;5054926;28;20262;-71
2022/05/25 06:22:09;;;;;;;17.20;9.90;;;;;;;;;;5052704;28;20181;-73
2022/05/25 06:24:36;;;;;;;16.85;10.48;;;;;;;;;;5054780;28;20295;-72
2022/05/25 06:27:02;;;;;;;12.30;10.35;;;;;;;;;;5055296;28;20338;-73
2022/05/25 06:29:27;;;;;;;12.07;9.95;;;;;;;;;;5050546;28;20758;-74
2022/05/25 06:31:52;;;;;;;19.33;11.73;;;;;;;;;;5055580;28;20215;-71
2022/05/25 06:34:17;;;;;;;13.57;11.43;;;;;;;;;;5033781;28;20288;-73
2022/05/25 06:36:43;;;;;;;15.43;11.98;;;;;;;;;;5049476;28;21077;-73
2022/05/25 06:39:08;;;;;;;16.92;12.32;;;;;;;;;;5050787;28;20662;-72
2022/05/25 06:41:34;;;;;;;16.50;12.07;;;;;;;;;;5042034;28;20300;-72
2022/05/25 06:44:00;;;;;;;18.25;13.15;;;;;;;;;;5028000;28;20209;-72
2022/05/25 06:46:26;;;;;;;16.38;12.55;;;;;;;;;;5044101;28;20189;-72
2022/05/25 06:48:52;;;;;;;16.05;13.20;;;;;;;;;;5040244;28;20186;-72
2022/05/25 06:51:22;;;;;;;16.45;13.15;;;;;;;;;;5045848;28;20785;-72
2022/05/25 06:53:47;;;;;;;15.48;13.32;;;;;;;;;;5043013;28;20225;-72
2022/05/25 06:56:13;;;;;;;19.35;14.02;;;;;;;;;;5042863;28;20185;-71
2022/05/25 06:58:38;;;;;;;17.23;15.35;;;;;;;;;;5039702;28;20226;-72
2022/05/25 07:01:03;;;;;;;19.55;14.63;;;;;;;;;;5045278;28;20181;-73
2022/05/25 07:03:29;;;;;;;16.42;14.30;;;;;;;;;;5046551;28;20212;-71
2022/05/25 07:05:54;;;;;;;18.63;14.63;;;;;;;;;;5037734;28;20173;-72
2022/05/25 07:08:19;;;;;;;15.95;13.68;;;;;;;;;;5042548;28;20213;-72
2022/05/25 07:10:46;;;;;;;23.00;15.45;;;;;;;;;;5041325;28;20666;-71
2022/05/25 07:13:15;;;;;;;24.17;15.88;;;;;;;;;;5027832;28;20213;-71
2022/05/25 07:15:40;;;;;;;18.52;14.65;;;;;;;;;;5046563;28;20185;-71
2022/05/25 07:18:06;;;;;;;23.88;14.98;;;;;;;;;;5040777;28;20209;-71
2022/05/25 07:20:31;;;;;;;17.02;14.70;;;;;;;;;;5046569;28;20231;-71
2022/05/25 07:22:56;;;;;;;17.70;14.70;;;;;;;;;;5047991;28;20307;-69
2022/05/25 07:25:22;;;;;;;20.53;15.97;;;;;;;;;;5037454;28;20277;-72
2022/05/25 07:27:47;;;;;;;18.83;16.15;;;;;;;;;;5020789;28;20427;-71
2022/05/25 07:30:13;;;;;;;18.10;15.30;;;;;;;;;;5040039;28;20189;-71
2022/05/25 07:32:38;;;;;;;20.67;16.75;;;;;;;;;;5027379;28;20212;-71
2022/05/25 07:35:04;;;;;;;19.15;15.68;;;;;;;;;;5046659;28;20189;-71
2022/05/25 07:37:33;;;;;;;16.90;15.15;;;;;;;;;;5045870;28;20295;-72
2022/05/25 07:40:05;;;;;;;17.95;15.45;;;;;;;;;;5046873;28;20268;-72
2022/05/25 07:42:31;;;;;;;21.25;16.23;;;;;;;;;;5046011;28;20217;-70
2022/05/25 07:44:57;;;;;;;18.98;15.40;;;;;;;;;;5047060;28;20185;-72
2022/05/25 07:47:23;;;;;;;17.90;14.40;;;;;;;;;;5047395;28;20182;-70
2022/05/25 07:49:48;;;;;;;17.35;15.65;;;;;;;;;;5049542;28;20185;-72
2022/05/25 07:52:14;;;;;;;16.27;13.80;;;;;;;;;;5050139;28;20184;-72
2022/05/25 07:54:40;;;;;;;19.95;15.63;;;;;;;;;;5034511;28;20403;-71
2022/05/25 07:57:05;;;;;;;19.88;15.52;;;;;;;;;;5049268;28;20706;-70
2022/05/25 07:59:31;;;;;;;15.75;14.15;;;;;;;;;;5049261;28;20185;-70
2022/05/25 08:07:30;;;;;;;15.38;13.60;;;;;;;;;;5045279;28;20212;-70
2022/05/25 08:09:59;;;;;;;19.10;15.23;;;;;;;;;;5038439;28;20887;-71
2022/05/25 08:12:25;;;;;;;16.58;13.45;;;;;;;;;;5047996;28;20263;-73
2022/05/25 08:14:50;;;;;;;21.77;15.10;;;;;;;;;;5047344;28;20831;-70
2022/05/25 08:17:15;;;;;;;15.55;13.63;;;;;;;;;;5050133;28;20678;-70
2022/05/25 08:19:40;;;;;;;15.17;13.47;;;;;;;;;;5050065;28;20260;-72
2022/05/25 08:22:06;;;;;;;16.67;13.93;;;;;;;;;;5049571;28;20846;-71
2022/05/25 08:24:32;;;;;;;15.10;12.88;;;;;;;;;;5048971;28;20173;-71
2022/05/25 08:26:57;;;;;;;15.25;12.55;;;;;;;;;;5043910;28;20199;-71
2022/05/25 08:29:25;;;;;;;17.80;13.27;;;;;;;;;;5051375;28;20711;-71
2022/05/25 08:31:53;;;;;;;15.82;12.77;;;;;;;;;;5039938;28;20186;-71
2022/05/25 08:34:18;;;;;;;13.30;12.00;;;;;;;;;;5040287;28;20197;-71
2022/05/25 08:36:43;;;;;;;16.83;11.90;;;;;;;;;;5052105;28;20215;-71
2022/05/25 08:39:09;;;;;;;12.33;11.03;;;;;;;;;;5047040;28;20270;-71
2022/05/25 08:41:36;;;;;;;13.70;9.82;;;;;;;;;;5051864;28;20409;-71
2022/05/25 08:44:02;;;;;;;12.75;10.23;;;;;;;;;;5049436;28;20201;-71
2022/05/25 08:46:29;;;;;;;11.73;9.75;;;;;;;;;;5052095;28;20203;-71
2022/05/25 08:48:55;;;;;;;10.63;9.63;;;;;;;;;;5048104;28;20185;-71
2022/05/25 08:51:27;;;;;;;10.18;9.07;;;;;;;;;;5051585;28;20181;-71
2022/05/25 08:53:53;;;;;;;10.30;9.00;;;;;;;;;;5049390;28;20259;-72
2022/05/25 08:56:21;;;;;;;13.23;9.27;;;;;;;;;;5032228;28;20600;-71
2022/05/25 08:58:49;;;;;;;11.30;8.48;;;;;;;;;;5050145;28;20232;-71
2022/05/25 09:01:22;;;;;;;10.82;7.47;;;;;;;;;;5050403;28;20643;-71
2022/05/25 09:03:52;;;;;;;10.40;6.57;;;;;;;;;;5046092;28;20209;-71
2022/05/25 09:06:28;;;;;;;10.70;6.78;;;;;;;;;;5046866;28;20184;-71
2022/05/25 09:09:03;;;;;;;8.43;6.85;;;;;;;;;;5036468;28;20185;-71
2022/05/25 09:11:31;;;;;;;11.13;7.03;;;;;;;;;;5049306;28;20689;-70
2022/05/25 09:14:00;;;;;;;8.18;6.93;;;;;;;;;;5046212;28;20775;-70
2022/05/25 09:16:27;;;;;;;8.27;6.57;;;;;;;;;;5049125;28;20186;-71
2022/05/25 09:19:14;;;;;;;14.68;6.82;;;;;;;;;;5049398;28;20201;-71
2022/05/25 09:21:54;;;;;;;6.82;5.50;;;;;;;;;;5044587;28;20268;-71
2022/05/25 09:24:21;;;;;;;6.32;4.85;;;;;;;;;;5051340;28;20193;-72
2022/05/25 09:26:46;;;;;;;4.47;3.05;;;;;;;;;;5050121;28;20185;-71
2022/05/25 09:29:12;;;;;;;5.95;2.50;;;;;;;;;;5048122;28;20548;-70
2022/05/25 09:31:46;;;;;;;5.18;1.83;;;;;;;;;;5048949;28;20232;-70
2022/05/25 09:34:14;;;;;;;5.32;1.90;;;;;;;;;;5046301;28;20220;-70
2022/05/25 09:36:42;;;;;;;6.20;1.88;;;;;;;;;;5051221;28;20196;-72
2022/05/25 09:39:31;;;;;;;3.42;1.50;;;;;;;;;;5046196;28;20237;-71
2022/05/25 09:41:58;;;;;;;2.05;1.10;;;;;;;;;;5045751;28;20174;-70
2022/05/25 09:44:24;;;;;;;1.77;0.88;;;;;;;;;;5048217;28;20201;-71
2022/05/25 09:46:59;;;;;;;2.63;1.10;;;;;;;;;;5050352;28;20181;-70
2022/05/25 09:49:45;;;;;;;2.75;1.55;;;;;;;;;;5050633;28;20543;-71
2022/05/25 09:52:13;;;;;;;3.63;0.98;;;;;;;;;;5030444;28;20181;-71
2022/05/25 09:54:46;;;;;;;3.20;0.77;;;;;;;;;;5049773;28;20330;-71
2022/05/25 09:57:31;;;;;;;3.92;1.40;;;;;;;;;;5046531;28;20390;-71
2022/05/25 10:00:06;;;;;;;2.53;0.85;;;;;;;;;;5045391;28;20181;-71
2022/05/25 10:02:37;;;;;;;2.60;0.60;;;;;;;;;;5047451;28;20189;-70
2022/05/25 10:05:09;;;;;;;2.80;0.80;;;;;;;;;;5058601;28;20684;-71
2022/05/25 10:07:35;;;;;;;2.10;1.13;;;;;;;;;;5043999;28;20177;-71
2022/05/25 10:10:02;;;;;;;4.32;0.90;;;;;;;;;;5037481;28;20190;-71
2022/05/25 10:12:40;;;;;;;2.58;1.15;;;;;;;;;;5048067;28;20212;-71
2022/05/25 10:15:26;;;;;;;2.53;0.90;;;;;;;;;;5048123;28;20192;-71
2022/05/25 10:17:51;;;;;;;5.00;1.02;;;;;;;;;;5044952;28;20444;-71
2022/05/25 10:20:22;;;;;;;2.83;1.00;;;;;;;;;;5050805;28;20268;-72
2022/05/25 10:22:50;;;;;;;3.05;1.02;;;;;;;;;;5053896;28;20247;-71
2022/05/25 10:25:28;;;;;;;2.28;1.40;;;;;;;;;;5050905;28;20166;-71
2022/05/25 10:27:53;;;;;;;2.30;0.90;;;;;;;;;;5053334;28;20206;-71
2022/05/25 10:36:47;;;;;;;2.90;0.80;;;;;;;;;;5050585;28;20238;-71
2022/05/25 10:39:27;;;;;;;2.80;0.73;;;;;;;;;;5044359;28;20759;-71
2022/05/25 10:42:11;;;;;;;2.60;0.80;;;;;;;;;;5045934;28;20216;-70
2022/05/25 10:44:57;;;;;;;2.53;0.82;;;;;;;;;;5048321;28;20253;-72
2022/05/25 10:47:41;;;;;;;5.70;0.90;;;;;;;;;;5039840;28;20647;-71
2022/05/25 10:50:09;;;;;;;1.70;0.90;;;;;;;;;;5041996;28;20190;-70
2022/05/25 10:52:36;;;;;;;1.63;0.50;;;;;;;;;;5044202;28;20209;-71
2022/05/25 10:55:03;;;;;;;1.17;0.57;;;;;;;;;;5053356;28;20192;-71
2022/05/25 10:57:38;;;;;;;4.97;0.90;;;;;;;;;;5038703;28;20206;-71
2022/05/25 11:00:06;;;;;;;4.18;0.63;;;;;;;;;;5050242;28;20237;-71
2022/05/25 11:02:43;;;;;;;0.75;0.50;;;;;;;;;;5055130;28;20307;-71
2022/05/25 11:05:22;;;;;;;4.78;1.00;;;;;;;;;;5059323;28;20302;-70
2022/05/25 11:07:49;;;;;;;1.50;0.52;;;;;;;;;;5051801;28;20187;-71
2022/05/25 11:10:33;;;;;;;2.03;0.65;;;;;;;;;;5047921;28;20182;-71
2022/05/25 11:13:21;;;;;;;2.53;0.60;;;;;;;;;;5034231;28;20228;-72
2022/05/25 11:15:55;;;;;;;3.10;0.80;;;;;;;;;;5023324;28;20276;-72
2022/05/25 11:18:21;;;;;;;2.55;0.80;;;;;;;;;;5050292;28;20602;-71
2022/05/25 11:20:56;;;;;;;5.75;0.63;;;;;;;;;;5042774;28;20177;-71
2022/05/25 11:23:21;;;;;;;2.33;0.52;;;;;;;;;;5045007;28;20251;-71
2022/05/25 11:26:05;;;;;;;3.50;1.10;;;;;;;;;;5052199;28;20205;-70
2022/05/25 11:29:06;;;;;;;5.20;0.90;;;;;;;;;;5048990;28;20196;-71
2022/05/25 11:31:36;;;;;;;3.53;0.60;;;;;;;;;;4952645;28;20839;-71
2022/05/25 11:34:01;;;;;;;4.03;0.40;;;;;;;;;;5028020;28;20338;-71
2022/05/25 11:36:30;;;;;;;3.80;0.82;;;;;;;;;;5053288;28;20205;-71
2022/05/25 11:38:55;;;;;;;1.45;0.55;;;;;;;;;;5048212;28;20232;-71
2022/05/25 11:41:21;;;;;;;1.45;0.52;;;;;;;;;;5046770;28;20307;-71
2022/05/25 11:43:55;;;;;;;3.30;0.80;;;;;;;;;;5046963;28;20216;-71
2022/05/25 11:46:32;;;;;;;2.05;0.93;;;;;;;;;;5048493;28;20564;-71
2022/05/25 11:49:04;;;;;;;4.28;0.63;;;;;;;;;;5050866;28;20188;-71
2022/05/25 11:51:30;;;;;;;1.50;0.52;;;;;;;;;;5051824;28;20624;-71
2022/05/25 11:54:14;;;;;;;4.35;0.60;;;;;;;;;;5052429;28;20704;-71
2022/05/25 11:56:48;;;;;;;4.97;0.80;;;;;;;;;;5046249;28;20181;-71
2022/05/25 11:59:31;;;;;;;1.83;0.43;;;;;;;;;;5048859;28;20235;-70
2022/05/25 12:02:16;;;;;;;1.23;0.50;;;;;;;;;;5050926;28;20170;-70
2022/05/25 12:04:41;;;;;;;1.58;0.60;;;;;;;;;;5050836;28;20679;-70
2022/05/25 12:07:09;;;;;;;3.67;0.57;;;;;;;;;;5039069;28;20253;-70
2022/05/25 12:09:40;;;;;;;3.78;0.73;;;;;;;;;;5046156;28;20422;-71
2022/05/25 12:12:18;;;;;;;0.60;0.47;;;;;;;;;;5043520;28;20224;-72
2022/05/25 12:14:58;;;;;;;2.55;0.60;;;;;;;;;;5044034;28;20264;-71
2022/05/25 12:17:37;;;;;;;3.15;0.70;;;;;;;;;;5048308;28;20208;-70
2022/05/25 12:20:04;;;;;;;1.65;0.63;;;;;;;;;;5050325;28;20209;-71
2022/05/25 12:22:34;;;;;;;3.85;1.25;;;;;;;;;;5048794;28;20209;-71
2022/05/25 12:25:18;;;;;;;3.30;0.90;;;;;;;;;;5051866;28;20173;-71
2022/05/25 12:27:44;;;;;;;4.72;1.92;;;;;;;;;;5045732;28;20272;-71
2022/05/25 12:30:12;;;;;;;3.83;1.17;;;;;;;;;;5044744;28;20643;-71
2022/05/25 12:32:38;;;;;;;3.30;1.20;;;;;;;;;;5051081;28;20236;-71
2022/05/25 12:35:04;;;;;;;3.28;1.40;;;;;;;;;;5050643;28;20181;-71
2022/05/25 12:37:39;;;;;;;4.20;1.25;;;;;;;;;;5050523;28;20300;-71
2022/05/25 12:40:07;;;;;;;5.00;1.73;;;;;;;;;;5049043;28;20200;-71
2022/05/25 12:42:34;;;;;;;3.70;1.38;;;;;;;;;;5050248;28;20197;-72
2022/05/25 12:50:52;;;;;;;5.65;1.40;;;;;;;;;;5050093;28;20184;-71
2022/05/25 12:53:30;;;;;;;3.75;1.40;;;;;;;;;;5050880;28;20244;-72
2022/05/25 12:55:55;;;;;;;4.85;1.25;;;;;;;;;;5051293;28;20188;-71
2022/05/25 12:58:39;;;;;;;3.47;1.42;;;;;;;;;;5050529;28;20288;-71
2022/05/25 13:01:04;;;;;;;3.53;1.38;;;;;;;;;;5046202;28;20212;-72
2022/05/25 13:03:35;;;;;;;4.63;1.37;;;;;;;;;;5049876;28;20205;-71
2022/05/25 13:06:02;;;;;;;3.63;1.73;;;;;;;;;;5055128;28;20419;-71
2022/05/25 13:08:45;;;;;;;4.68;1.60;;;;;;;;;;5049295;28;20239;-70
2022/05/25 13:11:27;;;;;;;2.50;1.65;;;;;;;;;;5050570;28;20697;-70
2022/05/25 13:13:53;;;;;;;5.72;2.50;;;;;;;;;;5042733;28;20200;-71
2022/05/25 13:16:36;;;;;;;4.80;1.40;;;;;;;;;;5035187;28;20272;-70
2022/05/25 13:19:18;;;;;;;3.78;1.02;;;;;;;;;;5045537;28;20472;-70
2022/05/25 13:22:07;;;;;;;6.05;1.63;;;;;;;;;;5048680;28;20318;-70
2022/05/25 13:24:49;;;;;;;4.43;1.50;;;;;;;;;;5048018;28;20177;-70
2022/05/25 13:27:21;;;;;;;5.53;1.40;;;;;;;;;;5050769;28;20181;-70
2022/05/25 13:30:06;;;;;;;4.75;1.92;;;;;;;;;;5048347;28;20173;-72
2022/05/25 13:32:38;;;;;;;3.15;1.60;;;;;;;;;;5049019;28;20553;-70
2022/05/25 13:35:23;;;;;;;7.13;1.52;;;;;;;;;;5046514;28;20181;-71
2022/05/25 13:38:00;;;;;;;2.70;1.38;;;;;;;;;;5045564;28;20595;-70
2022/05/25 13:40:27;;;;;;;5.25;1.50;;;;;;;;;;5039908;28;20181;-72
2022/05/25 13:42:53;;;;;;;3.83;1.17;;;;;;;;;;5050121;28;20190;-70
2022/05/25 13:45:21;;;;;;;4.22;1.48;;;;;;;;;;5050182;28;20178;-69
2022/05/25 13:47:56;;;;;;;3.50;1.45;;;;;;;;;;5048452;28;20190;-70
2022/05/25 13:50:28;;;;;;;4.10;1.50;;;;;;;;;;5050190;28;20182;-70
2022/05/25 13:52:54;;;;;;;4.80;1.52;;;;;;;;;;5049632;28;20205;-70
2022/05/25 13:55:30;;;;;;;3.97;1.40;;;;;;;;;;5049358;28;20184;-70
2022/05/25 13:57:59;;;;;;;3.20;1.58;;;;;;;;;;5045479;28;20833;-70
2022/05/25 14:00:27;;;;;;;5.05;1.73;;;;;;;;;;5052120;28;20173;-70
2022/05/25 14:02:58;;;;;;;6.32;1.40;;;;;;;;;;5055950;28;20205;-70
2022/05/25 14:05:32;;;;;;;4.22;1.20;;;;;;;;;;5050729;28;20311;-70
2022/05/25 14:10:54;;;;;;;6.53;1.42;;;;;;;;;;5041697;28;20205;-70
2022/05/25 14:11:14;;;;;;;5.97;1.30;;;;;;;;;;5043840;28;20281;-71
2022/05/25 14:13:40;;;;;;;4.43;1.20;;;;;;;;;;5052206;28;20227;-70
2022/05/25 14:16:10;;;;;;;2.75;1.27;;;;;;;;;;5054736;28;20320;-70
2022/05/25 14:18:52;;;;;;;6.13;1.52;;;;;;;;;;5044819;28;20284;-70
2022/05/25 14:21:29;;;;;;;4.80;1.20;;;;;;;;;;5053061;28;20174;-70
2022/05/25 14:23:55;;;;;;;5.47;1.42;;;;;;;;;;5049521;28;20196;-71
2022/05/25 14:26:25;;;;;;;4.18;1.10;;;;;;;;;;5052781;28;20174;-70
2022/05/25 14:28:51;;;;;;;4.05;1.50;;;;;;;;;;5052377;28;20695;-70
2022/05/25 14:31:18;;;;;;;8.05;1.10;;;;;;;;;;5036399;28;20192;-69
2022/05/25 14:33:43;;;;;;;3.85;1.20;;;;;;;;;;5050880;28;20198;-69
2022/05/25 14:36:08;;;;;;;5.35;1.45;;;;;;;;;;5053672;28;20185;-70
2022/05/25 14:38:36;;;;;;;7.40;1.20;;;;;;;;;;5033819;28;20698;-71
2022/05/25 14:41:01;;;;;;;3.78;1.10;;;;;;;;;;5033308;28;20173;-70
2022/05/25 14:43:42;;;;;;;5.68;1.05;;;;;;;;;;5052910;28;20604;-72
2022/05/25 14:46:18;;;;;;;4.05;1.77;;;;;;;;;;5053044;28;20169;-71
2022/05/25 14:48:45;;;;;;;6.47;1.00;;;;;;;;;;5050821;28;20181;-70
2022/05/25 14:51:10;;;;;;;6.88;1.48;;;;;;;;;;5044576;28;20193;-70
2022/05/25 14:53:35;;;;;;;3.95;1.00;;;;;;;;;;5053925;28;20598;-71
2022/05/25 14:56:02;;;;;;;5.80;1.40;;;;;;;;;;5052964;28;20185;-70
2022/05/25 14:58:33;;;;;;;4.25;0.90;;;;;;;;;;5051462;28;20209;-70
2022/05/25 15:01:10;;;;;;;6.15;1.50;;;;;;;;;;5049462;28;20170;-72
2022/05/25 15:03:37;;;;;;;3.38;1.00;;;;;;;;;;5053810;28;20201;-71
2022/05/25 15:06:06;;;;;;;5.80;1.25;;;;;;;;;;5051708;28;20180;-70
2022/05/25 15:08:32;;;;;;;3.25;1.05;;;;;;;;;;5051765;28;20192;-74
2022/05/25 15:11:17;;;;;;;7.00;2.05;;;;;;;;;;5051181;28;20188;-70
2022/05/25 15:19:11;;;;;;;6.40;1.27;;;;;;;;;;5042828;28;20768;-72